createdAt,value
2018-10-15T00:00:27.039Z,0
2018-10-15T00:01:27.040Z,0
2018-10-15T00:02:26.792Z,0
2018-10-15T00:03:26.552Z,0
2018-10-15T00:04:26.573Z,0
2018-10-15T00:05:27.067Z,0
2018-10-15T00:06:27.072Z,0
2018-10-15T00:07:26.826Z,0
2018-10-15T00:08:26.639Z,0
2018-10-15T00:09:27.101Z,0
2018-10-15T00:10:27.106Z,0
2018-10-15T00:11:26.852Z,0
2018-10-15T00:12:26.858Z,0
2018-10-15T00:13:27.122Z,0
2018-10-15T00:14:27.131Z,0
2018-10-15T00:15:27.189Z,0
2018-10-15T00:16:27.153Z,0
2018-10-15T00:17:26.905Z,0
2018-10-15T00:18:26.953Z,0
2018-10-15T00:19:27.158Z,0
2018-10-15T00:20:27.166Z,0
2018-10-15T00:21:26.925Z,0
2018-10-15T00:22:26.931Z,0
2018-10-15T00:23:26.983Z,0
2018-10-15T00:24:26.939Z,0
2018-10-15T00:25:26.951Z,0
2018-10-15T00:26:26.953Z,0
2018-10-15T00:27:26.975Z,0
2018-10-15T00:28:26.963Z,0
2018-10-15T00:29:27.230Z,0
2018-10-15T00:30:27.228Z,0
2018-10-15T00:31:26.993Z,0
2018-10-15T00:32:26.984Z,0
2018-10-15T00:33:27.002Z,0
2018-10-15T00:34:26.999Z,0
2018-10-15T00:35:27.267Z,0
2018-10-15T00:36:27.016Z,0
2018-10-15T00:37:27.024Z,0
2018-10-15T00:38:27.340Z,0
2018-10-15T00:39:27.348Z,0
2018-10-15T00:40:27.311Z,0
2018-10-15T00:41:27.051Z,0
2018-10-15T00:42:27.068Z,0
2018-10-15T00:43:27.070Z,0
2018-10-15T00:44:27.073Z,0
2018-10-15T00:45:26.821Z,0
2018-10-15T00:46:27.080Z,0
2018-10-15T00:47:26.831Z,0
2018-10-15T00:48:27.094Z,0
2018-10-15T00:49:27.099Z,0
2018-10-15T00:50:27.375Z,0
2018-10-15T00:51:27.369Z,0
2018-10-15T00:52:27.128Z,0
2018-10-15T00:53:27.229Z,0
2018-10-15T00:54:27.130Z,0
2018-10-15T00:55:27.138Z,0
2018-10-15T00:56:26.892Z,0
2018-10-15T00:57:27.409Z,0
2018-10-15T00:58:27.433Z,0
2018-10-15T00:59:27.427Z,0
2018-10-15T01:00:27.174Z,0
2018-10-15T01:01:27.427Z,0
2018-10-15T01:02:27.445Z,0
2018-10-15T01:03:27.158Z,0
2018-10-15T01:04:27.168Z,0
2018-10-15T01:05:27.196Z,0
2018-10-15T01:06:27.440Z,0
2018-10-15T01:07:27.184Z,0
2018-10-15T01:08:27.243Z,0
2018-10-15T01:09:27.198Z,0
2018-10-15T01:10:27.203Z,0
2018-10-15T01:11:27.459Z,0
2018-10-15T01:12:27.472Z,0
2018-10-15T01:13:27.235Z,0
2018-10-15T01:14:27.497Z,0
2018-10-15T01:15:27.252Z,0
2018-10-15T01:16:27.259Z,0
2018-10-15T01:17:27.541Z,0
2018-10-15T01:18:27.535Z,0
2018-10-15T01:19:27.557Z,0
2018-10-15T01:20:27.291Z,0
2018-10-15T01:21:27.549Z,0
2018-10-15T01:22:27.313Z,0
2018-10-15T01:23:27.107Z,0
2018-10-15T01:24:27.056Z,0
2018-10-15T01:25:27.309Z,0
2018-10-15T01:26:27.070Z,0
2018-10-15T01:27:27.337Z,0
2018-10-15T01:28:27.631Z,0
2018-10-15T01:29:27.637Z,0
2018-10-15T01:30:27.092Z,0
2018-10-15T01:31:27.357Z,0
2018-10-15T01:32:27.365Z,0
2018-10-15T01:33:27.370Z,0
2018-10-15T01:34:27.389Z,0
2018-10-15T01:35:27.635Z,0
2018-10-15T01:36:27.644Z,0
2018-10-15T01:37:27.139Z,0
2018-10-15T01:38:28.657Z,0
2018-10-15T01:39:27.417Z,0
2018-10-15T01:40:27.408Z,0
2018-10-15T01:41:27.666Z,0
2018-10-15T01:42:27.675Z,0
2018-10-15T01:43:27.478Z,0
2018-10-15T01:44:27.441Z,0
2018-10-15T01:45:27.464Z,0
2018-10-15T01:46:27.711Z,0
2018-10-15T01:47:27.710Z,0
2018-10-15T01:48:27.711Z,0
2018-10-15T01:49:27.752Z,0
2018-10-15T01:50:27.720Z,0
2018-10-15T01:51:27.468Z,0
2018-10-15T01:52:27.223Z,0
2018-10-15T01:53:27.784Z,0
2018-10-15T01:54:27.495Z,0
2018-10-15T01:55:27.754Z,0
2018-10-15T01:56:27.752Z,0
2018-10-15T01:57:27.259Z,0
2018-10-15T01:58:27.517Z,0
2018-10-15T01:59:27.517Z,0
2018-10-15T02:00:27.533Z,0
2018-10-15T02:01:27.787Z,0
2018-10-15T02:02:27.286Z,0
2018-10-15T02:03:27.549Z,0
2018-10-15T02:04:27.557Z,0
2018-10-15T02:05:27.561Z,0
2018-10-15T02:06:27.563Z,0
2018-10-15T02:07:27.314Z,0
2018-10-15T02:08:27.876Z,0
2018-10-15T02:09:27.878Z,0
2018-10-15T02:10:27.840Z,0
2018-10-15T02:11:27.335Z,0
2018-10-15T02:12:27.595Z,0
2018-10-15T02:13:27.852Z,0
2018-10-15T02:14:27.861Z,0
2018-10-15T02:15:27.618Z,0
2018-10-15T02:16:27.360Z,0
2018-10-15T02:17:27.880Z,0
2018-10-15T02:18:27.371Z,0
2018-10-15T02:19:27.883Z,0
2018-10-15T02:20:27.885Z,0
2018-10-15T02:21:27.895Z,0
2018-10-15T02:22:27.651Z,0
2018-10-15T02:23:27.989Z,0
2018-10-15T02:24:27.910Z,0
2018-10-15T02:25:27.942Z,0
2018-10-15T02:26:27.413Z,0
2018-10-15T02:27:27.679Z,0
2018-10-15T02:28:27.425Z,0
2018-10-15T02:29:27.963Z,0
2018-10-15T02:30:27.708Z,0
2018-10-15T02:31:28.054Z,0
2018-10-15T02:32:27.955Z,0
2018-10-15T02:33:27.704Z,0
2018-10-15T02:34:27.712Z,0
2018-10-15T02:35:27.975Z,0
2018-10-15T02:36:27.466Z,0
2018-10-15T02:37:27.981Z,0
2018-10-15T02:38:28.054Z,0
2018-10-15T02:39:27.822Z,0
2018-10-15T02:40:27.741Z,0
2018-10-15T02:41:28.008Z,0
2018-10-15T02:42:28.017Z,0
2018-10-15T02:43:28.029Z,0
2018-10-15T02:44:27.768Z,0
2018-10-15T02:45:28.063Z,0
2018-10-15T02:46:27.781Z,0
2018-10-15T02:47:28.093Z,0
2018-10-15T02:48:27.793Z,0
2018-10-15T02:49:27.799Z,0
2018-10-15T02:50:28.065Z,0
2018-10-15T02:51:28.058Z,0
2018-10-15T02:52:27.813Z,0
2018-10-15T02:53:28.118Z,0
2018-10-15T02:54:27.823Z,0
2018-10-15T02:55:27.828Z,0
2018-10-15T02:56:28.086Z,0
2018-10-15T02:57:28.089Z,0
2018-10-15T02:58:27.850Z,0
2018-10-15T02:59:27.847Z,0
2018-10-15T03:00:28.107Z,0
2018-10-15T03:01:28.148Z,0
2018-10-15T03:02:27.869Z,0
2018-10-15T03:03:27.866Z,0
2018-10-15T03:04:28.141Z,0
2018-10-15T03:05:27.877Z,0
2018-10-15T03:06:28.135Z,0
2018-10-15T03:07:28.150Z,0
2018-10-15T03:08:28.712Z,0
2018-10-15T03:09:28.143Z,0
2018-10-15T03:10:28.157Z,0
2018-10-15T03:11:27.945Z,0
2018-10-15T03:12:28.162Z,0
2018-10-15T03:13:28.184Z,0
2018-10-15T03:14:28.180Z,0
2018-10-15T03:15:27.934Z,0
2018-10-15T03:16:28.189Z,0
2018-10-15T03:17:28.206Z,0
2018-10-15T03:18:27.934Z,0
2018-10-15T03:19:27.937Z,0
2018-10-15T03:20:28.357Z,0
2018-10-15T03:21:28.223Z,0
2018-10-15T03:22:27.972Z,0
2018-10-15T03:23:28.487Z,0
2018-10-15T03:24:27.735Z,0
2018-10-15T03:25:28.225Z,0
2018-10-15T03:26:28.228Z,0
2018-10-15T03:27:27.721Z,0
2018-10-15T03:28:28.349Z,0
2018-10-15T03:29:28.238Z,0
2018-10-15T03:30:27.734Z,0
2018-10-15T03:31:28.285Z,0
2018-10-15T03:32:28.006Z,0
2018-10-15T03:33:28.246Z,0
2018-10-15T03:34:28.006Z,0
2018-10-15T03:35:28.013Z,0
2018-10-15T03:36:28.289Z,0
2018-10-15T03:37:28.281Z,0
2018-10-15T03:38:28.364Z,0
2018-10-15T03:39:28.050Z,0
2018-10-15T03:40:27.814Z,0
2018-10-15T03:41:28.053Z,0
2018-10-15T03:42:28.317Z,0
2018-10-15T03:43:28.074Z,0
2018-10-15T03:44:28.327Z,0
2018-10-15T03:45:28.328Z,0
2018-10-15T03:46:28.347Z,0
2018-10-15T03:47:28.082Z,0
2018-10-15T03:48:28.134Z,0
2018-10-15T03:49:28.343Z,0
2018-10-15T03:50:28.345Z,0
2018-10-15T03:51:28.124Z,0
2018-10-15T03:52:27.854Z,0
2018-10-15T03:53:28.374Z,0
2018-10-15T03:54:28.372Z,0
2018-10-15T03:55:28.372Z,0
2018-10-15T03:56:28.137Z,0
2018-10-15T03:57:28.157Z,0
2018-10-15T03:58:28.386Z,0
2018-10-15T03:59:28.397Z,0
2018-10-15T04:00:28.210Z,0
2018-10-15T04:01:28.406Z,0
2018-10-15T04:02:28.618Z,0
2018-10-15T04:03:28.458Z,0
2018-10-15T04:04:28.423Z,0
2018-10-15T04:05:28.418Z,0
2018-10-15T04:06:28.172Z,0
2018-10-15T04:07:27.924Z,0
2018-10-15T04:08:28.621Z,0
2018-10-15T04:09:28.195Z,0
2018-10-15T04:10:28.193Z,0
2018-10-15T04:11:28.453Z,0
2018-10-15T04:12:28.451Z,0
2018-10-15T04:13:28.620Z,0
2018-10-15T04:14:28.857Z,0
2018-10-15T04:15:28.483Z,0
2018-10-15T04:16:28.475Z,0
2018-10-15T04:17:28.479Z,0
2018-10-15T04:18:28.288Z,0
2018-10-15T04:19:28.488Z,0
2018-10-15T04:20:28.267Z,0
2018-10-15T04:21:28.499Z,0
2018-10-15T04:22:28.564Z,0
2018-10-15T04:23:28.257Z,0
2018-10-15T04:24:28.513Z,0
2018-10-15T04:25:28.275Z,0
2018-10-15T04:26:28.521Z,0
2018-10-15T04:27:28.519Z,0
2018-10-15T04:28:28.531Z,0
2018-10-15T04:29:28.532Z,0
2018-10-15T04:30:28.034Z,0
2018-10-15T04:31:28.290Z,0
2018-10-15T04:32:28.037Z,0
2018-10-15T04:33:28.599Z,0
2018-10-15T04:34:28.556Z,0
2018-10-15T04:35:28.320Z,0
2018-10-15T04:36:28.303Z,0
2018-10-15T04:37:28.058Z,0
2018-10-15T04:38:28.321Z,0
2018-10-15T04:39:28.342Z,0
2018-10-15T04:40:28.332Z,0
2018-10-15T04:41:28.338Z,0
2018-10-15T04:42:28.089Z,0
2018-10-15T04:43:28.602Z,0
2018-10-15T04:44:28.104Z,0
2018-10-15T04:45:28.613Z,0
2018-10-15T04:46:28.621Z,0
2018-10-15T04:47:28.374Z,0
2018-10-15T04:48:28.671Z,0
2018-10-15T04:49:29.676Z,0
2018-10-15T04:50:28.382Z,0
2018-10-15T04:51:28.641Z,0
2018-10-15T04:52:28.403Z,0
2018-10-15T04:53:28.664Z,0
2018-10-15T04:54:28.658Z,0
2018-10-15T04:55:28.428Z,0
2018-10-15T04:56:28.647Z,0
2018-10-15T04:57:28.656Z,0
2018-10-15T04:58:28.656Z,0
2018-10-15T04:59:28.171Z,4
2018-10-15T05:00:28.032Z,4
2018-10-15T05:01:28.443Z,4
2018-10-15T05:02:28.493Z,4
2018-10-15T05:03:28.741Z,4
2018-10-15T05:04:28.685Z,4
2018-10-15T05:05:28.183Z,4
2018-10-15T05:06:29.114Z,4
2018-10-15T05:07:28.710Z,4
2018-10-15T05:08:28.466Z,4
2018-10-15T05:09:29.032Z,8
2018-10-15T05:10:28.488Z,4
2018-10-15T05:11:28.473Z,8
2018-10-15T05:12:29.101Z,8
2018-10-15T05:13:28.733Z,8
2018-10-15T05:14:28.503Z,12
2018-10-15T05:15:28.742Z,12
2018-10-15T05:16:28.729Z,16
2018-10-15T05:17:28.486Z,20
2018-10-15T05:18:28.785Z,24
2018-10-15T05:19:28.235Z,28
2018-10-15T05:20:28.501Z,32
2018-10-15T05:21:29.815Z,40
2018-10-15T05:22:28.755Z,44
2018-10-15T05:23:28.764Z,52
2018-10-15T05:24:28.598Z,60
2018-10-15T05:25:28.782Z,68
2018-10-15T05:26:28.789Z,76
2018-10-15T05:27:28.780Z,88
2018-10-15T05:28:28.555Z,100
2018-10-15T05:29:28.813Z,112
2018-10-15T05:30:29.708Z,128
2018-10-15T05:31:28.567Z,144
2018-10-15T05:32:28.574Z,156
2018-10-15T05:33:28.881Z,172
2018-10-15T05:34:28.828Z,188
2018-10-15T05:35:28.843Z,208
2018-10-15T05:36:28.623Z,224
2018-10-15T05:37:28.839Z,244
2018-10-15T05:38:28.338Z,264
2018-10-15T05:39:28.848Z,284
2018-10-15T05:40:28.850Z,304
2018-10-15T05:41:28.604Z,328
2018-10-15T05:42:28.755Z,352
2018-10-15T05:43:28.889Z,372
2018-10-15T05:44:28.883Z,392
2018-10-15T05:45:28.629Z,416
2018-10-15T05:46:29.107Z,440
2018-10-15T05:47:28.898Z,468
2018-10-15T05:48:29.096Z,492
2018-10-15T05:49:28.648Z,516
2018-10-15T05:50:28.919Z,540
2018-10-15T05:51:28.906Z,572
2018-10-15T05:52:28.917Z,604
2018-10-15T05:53:28.669Z,636
2018-10-15T05:54:28.814Z,668
2018-10-15T05:55:28.675Z,704
2018-10-15T05:56:28.935Z,744
2018-10-15T05:57:28.685Z,784
2018-10-15T05:58:28.926Z,828
2018-10-15T05:59:28.678Z,872
2018-10-15T06:00:28.600Z,916
2018-10-15T06:01:28.434Z,964
2018-10-15T06:02:28.954Z,1016
2018-10-15T06:03:29.010Z,1060
2018-10-15T06:04:28.700Z,1108
2018-10-15T06:05:28.962Z,1160
2018-10-15T06:06:28.888Z,1200
2018-10-15T06:07:28.998Z,1248
2018-10-15T06:08:28.735Z,1292
2018-10-15T06:09:28.996Z,1336
2018-10-15T06:10:28.752Z,1368
2018-10-15T06:11:29.007Z,1404
2018-10-15T06:12:29.242Z,1424
2018-10-15T06:13:29.445Z,1468
2018-10-15T06:14:28.772Z,1496
2018-10-15T06:15:28.516Z,1568
2018-10-15T06:16:29.029Z,1620
2018-10-15T06:17:28.765Z,1660
2018-10-15T06:18:29.002Z,1700
2018-10-15T06:19:28.779Z,1744
2018-10-15T06:20:28.785Z,1784
2018-10-15T06:21:28.796Z,1824
2018-10-15T06:22:28.536Z,1864
2018-10-15T06:23:28.795Z,1904
2018-10-15T06:24:28.806Z,1944
2018-10-15T06:25:28.805Z,1984
2018-10-15T06:26:28.811Z,2024
2018-10-15T06:27:29.073Z,2064
2018-10-15T06:28:29.391Z,2108
2018-10-15T06:29:28.828Z,2152
2018-10-15T06:30:29.512Z,2196
2018-10-15T06:31:29.101Z,2240
2018-10-15T06:32:29.098Z,2280
2018-10-15T06:33:29.149Z,2324
2018-10-15T06:34:28.856Z,2364
2018-10-15T06:35:28.857Z,2404
2018-10-15T06:36:29.225Z,2448
2018-10-15T06:37:29.634Z,2496
2018-10-15T06:38:29.377Z,2536
2018-10-15T06:39:28.838Z,2584
2018-10-15T06:40:28.372Z,2620
2018-10-15T06:41:29.233Z,2668
2018-10-15T06:42:28.637Z,2716
2018-10-15T06:43:28.672Z,2760
2018-10-15T06:44:28.703Z,2800
2018-10-15T06:45:29.791Z,2840
2018-10-15T06:46:29.605Z,2880
2018-10-15T06:47:29.526Z,2924
2018-10-15T06:48:29.230Z,2964
2018-10-15T06:49:28.872Z,3000
2018-10-15T06:50:28.930Z,3044
2018-10-15T06:51:29.336Z,3080
2018-10-15T06:52:29.185Z,3120
2018-10-15T06:53:29.534Z,3156
2018-10-15T06:54:28.438Z,3192
2018-10-15T06:55:28.952Z,3232
2018-10-15T06:56:28.956Z,3268
2018-10-15T06:57:29.057Z,3308
2018-10-15T06:58:29.226Z,3348
2018-10-15T06:59:29.311Z,3388
2018-10-15T07:00:29.576Z,3436
2018-10-15T07:01:29.403Z,3472
2018-10-15T07:02:29.135Z,3516
2018-10-15T07:03:29.462Z,3544
2018-10-15T07:04:29.296Z,3588
2018-10-15T07:05:28.750Z,3624
2018-10-15T07:06:29.273Z,3664
2018-10-15T07:07:30.006Z,3704
2018-10-15T07:08:29.080Z,3744
2018-10-15T07:09:29.043Z,3784
2018-10-15T07:10:29.768Z,3820
2018-10-15T07:11:29.338Z,3864
2018-10-15T07:12:29.355Z,3900
2018-10-15T07:13:29.278Z,3940
2018-10-15T07:14:29.033Z,3980
2018-10-15T07:15:28.797Z,4020
2018-10-15T07:16:29.621Z,4060
2018-10-15T07:17:29.312Z,4100
2018-10-15T07:18:29.064Z,4144
2018-10-15T07:19:29.440Z,4196
2018-10-15T07:20:29.812Z,4232
2018-10-15T07:21:29.350Z,4280
2018-10-15T07:22:29.519Z,4328
2018-10-15T07:23:29.387Z,4372
2018-10-15T07:24:29.368Z,4388
2018-10-15T07:25:29.122Z,4468
2018-10-15T07:26:28.880Z,4508
2018-10-15T07:27:28.875Z,4560
2018-10-15T07:28:29.048Z,4600
2018-10-15T07:29:29.145Z,4648
2018-10-15T07:30:29.280Z,4684
2018-10-15T07:31:29.155Z,4728
2018-10-15T07:32:28.905Z,4772
2018-10-15T07:33:29.551Z,4816
2018-10-15T07:34:29.352Z,4856
2018-10-15T07:35:29.181Z,4904
2018-10-15T07:36:29.358Z,4952
2018-10-15T07:37:29.449Z,5000
2018-10-15T07:38:29.383Z,5040
2018-10-15T07:39:29.326Z,5076
2018-10-15T07:40:29.563Z,5120
2018-10-15T07:41:29.478Z,5156
2018-10-15T07:42:29.667Z,5200
2018-10-15T07:43:29.486Z,5240
2018-10-15T07:44:29.828Z,5320
2018-10-15T07:45:29.495Z,5340
2018-10-15T07:46:30.314Z,5348
2018-10-15T07:47:29.594Z,5200
2018-10-15T07:48:29.417Z,5380
2018-10-15T07:49:29.272Z,5456
2018-10-15T07:50:29.479Z,5488
2018-10-15T07:51:29.279Z,5520
2018-10-15T07:52:29.696Z,5556
2018-10-15T07:53:29.884Z,5592
2018-10-15T07:54:29.477Z,5632
2018-10-15T07:55:29.551Z,5668
2018-10-15T07:56:29.786Z,5712
2018-10-15T07:57:29.322Z,5744
2018-10-15T07:58:29.462Z,5784
2018-10-15T07:59:29.083Z,5820
2018-10-15T08:00:30.012Z,5856
2018-10-15T08:01:29.629Z,5892
2018-10-15T08:02:29.472Z,5924
2018-10-15T08:03:29.376Z,5960
2018-10-15T08:04:30.031Z,5992
2018-10-15T08:05:29.573Z,6024
2018-10-15T08:06:29.483Z,6060
2018-10-15T08:07:29.383Z,6096
2018-10-15T08:08:30.473Z,6128
2018-10-15T08:09:29.408Z,6160
2018-10-15T08:10:29.858Z,6192
2018-10-15T08:11:29.521Z,6216
2018-10-15T08:12:29.177Z,6244
2018-10-15T08:13:29.438Z,6276
2018-10-15T08:14:30.111Z,6304
2018-10-15T08:15:30.589Z,6344
2018-10-15T08:16:29.668Z,6376
2018-10-15T08:17:29.466Z,6412
2018-10-15T08:18:29.778Z,6452
2018-10-15T08:19:29.495Z,6496
2018-10-15T08:20:29.985Z,6528
2018-10-15T08:21:29.252Z,6564
2018-10-15T08:22:29.922Z,6596
2018-10-15T08:23:29.567Z,6632
2018-10-15T08:24:29.521Z,6672
2018-10-15T08:25:29.800Z,6704
2018-10-15T08:26:29.289Z,6740
2018-10-15T08:27:29.542Z,6776
2018-10-15T08:28:29.856Z,6816
2018-10-15T08:29:29.565Z,6844
2018-10-15T08:30:29.574Z,6884
2018-10-15T08:31:29.575Z,6920
2018-10-15T08:32:29.583Z,6956
2018-10-15T08:33:29.589Z,6992
2018-10-15T08:34:29.963Z,7028
2018-10-15T08:35:29.558Z,7068
2018-10-15T08:36:29.621Z,7096
2018-10-15T08:37:29.606Z,7144
2018-10-15T08:38:29.970Z,7180
2018-10-15T08:39:29.883Z,7224
2018-10-15T08:40:29.392Z,7260
2018-10-15T08:41:29.794Z,7300
2018-10-15T08:42:29.689Z,7340
2018-10-15T08:43:29.685Z,7372
2018-10-15T08:44:29.189Z,7408
2018-10-15T08:45:29.957Z,7444
2018-10-15T08:46:29.716Z,7468
2018-10-15T08:47:29.972Z,7500
2018-10-15T08:48:29.811Z,7540
2018-10-15T08:49:29.989Z,7572
2018-10-15T08:50:30.346Z,7604
2018-10-15T08:51:29.480Z,7648
2018-10-15T08:52:29.961Z,7680
2018-10-15T08:53:29.823Z,7716
2018-10-15T08:54:29.706Z,7748
2018-10-15T08:55:29.529Z,7784
2018-10-15T08:56:29.791Z,7816
2018-10-15T08:57:29.802Z,7836
2018-10-15T08:58:29.815Z,7868
2018-10-15T08:59:29.856Z,7892
2018-10-15T09:00:29.828Z,7916
2018-10-15T09:01:29.839Z,7940
2018-10-15T09:02:29.338Z,7952
2018-10-15T09:03:30.157Z,7976
2018-10-15T09:04:30.120Z,8008
2018-10-15T09:05:29.880Z,8032
2018-10-15T09:06:30.192Z,8064
2018-10-15T09:07:30.191Z,8084
2018-10-15T09:08:30.818Z,8112
2018-10-15T09:09:31.176Z,8180
2018-10-15T09:10:29.906Z,8152
2018-10-15T09:11:30.163Z,8176
2018-10-15T09:12:30.692Z,8200
2018-10-15T09:13:30.338Z,8216
2018-10-15T09:14:30.391Z,8252
2018-10-15T09:15:29.952Z,8272
2018-10-15T09:16:30.420Z,8292
2018-10-15T09:17:30.221Z,8320
2018-10-15T09:18:30.129Z,8340
2018-10-15T09:19:29.741Z,8360
2018-10-15T09:20:29.824Z,8384
2018-10-15T09:21:30.820Z,8420
2018-10-15T09:22:29.778Z,8452
2018-10-15T09:23:30.053Z,8480
2018-10-15T09:24:30.318Z,8512
2018-10-15T09:25:30.064Z,8524
2018-10-15T09:26:30.112Z,8540
2018-10-15T09:27:30.276Z,8560
2018-10-15T09:28:30.451Z,8600
2018-10-15T09:29:29.844Z,8628
2018-10-15T09:30:30.365Z,8672
2018-10-15T09:31:30.928Z,8688
2018-10-15T09:32:30.391Z,8724
2018-10-15T09:33:30.809Z,8752
2018-10-15T09:34:29.900Z,8776
2018-10-15T09:35:31.094Z,8808
2018-10-15T09:36:30.170Z,8840
2018-10-15T09:37:30.445Z,8868
2018-10-15T09:38:30.052Z,8892
2018-10-15T09:39:29.949Z,8916
2018-10-15T09:40:30.471Z,8932
2018-10-15T09:41:30.501Z,8944
2018-10-15T09:42:30.228Z,8972
2018-10-15T09:43:30.038Z,8996
2018-10-15T09:44:30.510Z,9028
2018-10-15T09:45:30.040Z,9056
2018-10-15T09:46:30.533Z,9076
2018-10-15T09:47:30.286Z,9104
2018-10-15T09:48:29.793Z,9120
2018-10-15T09:49:30.304Z,9144
2018-10-15T09:50:30.148Z,9152
2018-10-15T09:51:30.351Z,9164
2018-10-15T09:52:30.594Z,9172
2018-10-15T09:53:31.244Z,9204
2018-10-15T09:54:30.359Z,9236
2018-10-15T09:55:30.627Z,9260
2018-10-15T09:56:30.632Z,9280
2018-10-15T09:57:30.639Z,9344
2018-10-15T09:58:30.401Z,9760
2018-10-15T09:59:30.424Z,11096
2018-10-15T10:00:30.168Z,12544
2018-10-15T10:01:30.439Z,13232
2018-10-15T10:02:30.423Z,13356
2018-10-15T10:03:30.693Z,13408
2018-10-15T10:04:30.450Z,13456
2018-10-15T10:05:30.736Z,13600
2018-10-15T10:06:30.494Z,13720
2018-10-15T10:07:30.851Z,13848
2018-10-15T10:08:30.688Z,14016
2018-10-15T10:09:30.776Z,14140
2018-10-15T10:10:30.552Z,14260
2018-10-15T10:11:30.552Z,14368
2018-10-15T10:12:30.545Z,14488
2018-10-15T10:13:30.809Z,14600
2018-10-15T10:14:31.210Z,14664
2018-10-15T10:15:30.838Z,14792
2018-10-15T10:16:30.345Z,14968
2018-10-15T10:17:31.735Z,15116
2018-10-15T10:18:31.558Z,15400
2018-10-15T10:19:30.929Z,15592
2018-10-15T10:20:30.680Z,15936
2018-10-15T10:21:30.943Z,16356
2018-10-15T10:22:31.491Z,17344
2018-10-15T10:23:31.018Z,18496
2018-10-15T10:24:30.993Z,19296
2018-10-15T10:25:31.056Z,19712
2018-10-15T10:26:30.510Z,20192
2018-10-15T10:27:31.174Z,20608
2018-10-15T10:28:31.572Z,20800
2018-10-15T10:29:30.934Z,21312
2018-10-15T10:30:31.090Z,23552
2018-10-15T10:31:30.850Z,32416
2018-10-15T10:32:31.131Z,45376
2018-10-15T10:33:31.400Z,54144
2018-10-15T10:34:30.650Z,55456
2018-10-15T10:35:31.217Z,54400
2018-10-15T10:36:31.185Z,53184
2018-10-15T10:37:31.216Z,51616
2018-10-15T10:38:31.097Z,52320
2018-10-15T10:39:30.989Z,48192
2018-10-15T10:40:31.323Z,42976
2018-10-15T10:41:31.053Z,46336
2018-10-15T10:42:30.799Z,48608
2018-10-15T10:43:31.324Z,45696
2018-10-15T10:44:30.838Z,44896
2018-10-15T10:45:31.656Z,44384
2018-10-15T10:46:31.136Z,50144
2018-10-15T10:47:31.258Z,50592
2018-10-15T10:48:31.424Z,51744
2018-10-15T10:49:31.451Z,52800
2018-10-15T10:50:31.464Z,50112
2018-10-15T10:51:31.231Z,47072
2018-10-15T10:52:31.251Z,48128
2018-10-15T10:53:31.575Z,49888
2018-10-15T10:54:31.535Z,49600
2018-10-15T10:55:31.557Z,49504
2018-10-15T10:56:31.572Z,49600
2018-10-15T10:57:31.449Z,49472
2018-10-15T10:58:31.773Z,49568
2018-10-15T10:59:31.905Z,52896
2018-10-15T11:00:31.703Z,53600
2018-10-15T11:01:31.431Z,53376
2018-10-15T11:02:31.384Z,53376
2018-10-15T11:03:31.725Z,54528
2018-10-15T11:04:31.253Z,57600
2018-10-15T11:05:31.905Z,59616
2018-10-15T11:06:31.802Z,60448
2018-10-15T11:07:31.575Z,59584
2018-10-15T11:08:31.872Z,60192
2018-10-15T11:09:31.360Z,59392
2018-10-15T11:10:31.636Z,58912
2018-10-15T11:11:31.662Z,59968
2018-10-15T11:12:31.943Z,58336
2018-10-15T11:13:32.040Z,53888
2018-10-15T11:14:31.976Z,51456
2018-10-15T11:15:32.000Z,53664
2018-10-15T11:16:31.785Z,57152
2018-10-15T11:17:32.047Z,61024
2018-10-15T11:18:32.611Z,59424
2018-10-15T11:19:31.837Z,56128
2018-10-15T11:20:31.866Z,56480
2018-10-15T11:21:32.136Z,55712
2018-10-15T11:22:31.782Z,57568
2018-10-15T11:23:32.195Z,58176
2018-10-15T11:24:31.956Z,59680
2018-10-15T11:25:32.257Z,61888
2018-10-15T11:26:32.269Z,64640
2018-10-15T11:27:32.294Z,66560
2018-10-15T11:28:32.165Z,67520
2018-10-15T11:29:32.169Z,66976
2018-10-15T11:30:32.383Z,65440
2018-10-15T11:31:32.391Z,60512
2018-10-15T11:32:32.164Z,58496
2018-10-15T11:33:32.189Z,54976
2018-10-15T11:34:32.818Z,51808
2018-10-15T11:35:31.980Z,54144
2018-10-15T11:36:32.264Z,59872
2018-10-15T11:37:32.546Z,66048
2018-10-15T11:38:33.317Z,74080
2018-10-15T11:39:32.592Z,77504
2018-10-15T11:40:32.356Z,86880
2018-10-15T11:41:32.384Z,96256
2018-10-15T11:42:32.665Z,74112
2018-10-15T11:43:32.660Z,48448
2018-10-15T11:44:32.461Z,41152
2018-10-15T11:45:32.484Z,39776
2018-10-15T11:46:32.915Z,36512
2018-10-15T11:47:32.546Z,34752
2018-10-15T11:48:32.857Z,33792
2018-10-15T11:49:32.834Z,33728
2018-10-15T11:50:32.848Z,34816
2018-10-15T11:51:33.492Z,36192
2018-10-15T11:52:32.651Z,38368
2018-10-15T11:53:32.885Z,40416
2018-10-15T11:54:32.952Z,42304
2018-10-15T11:55:32.986Z,44416
2018-10-15T11:56:32.751Z,45824
2018-10-15T11:57:33.045Z,49152
2018-10-15T11:58:33.175Z,53120
2018-10-15T11:59:32.989Z,55072
2018-10-15T12:00:32.858Z,56960
2018-10-15T12:01:33.133Z,57824
2018-10-15T12:02:33.408Z,55424
2018-10-15T12:03:33.232Z,53728
2018-10-15T12:04:33.213Z,55744
2018-10-15T12:05:32.981Z,57568
2018-10-15T12:06:33.008Z,58944
2018-10-15T12:07:32.781Z,61408
2018-10-15T12:08:33.067Z,64192
2018-10-15T12:09:33.081Z,67616
2018-10-15T12:10:33.355Z,73728
2018-10-15T12:11:33.384Z,78688
2018-10-15T12:12:33.408Z,80192
2018-10-15T12:13:33.431Z,81888
2018-10-15T12:14:33.204Z,82624
2018-10-15T12:15:33.493Z,81344
2018-10-15T12:16:33.274Z,80128
2018-10-15T12:17:33.291Z,77312
2018-10-15T12:18:33.371Z,70944
2018-10-15T12:19:33.594Z,64192
2018-10-15T12:20:33.626Z,61184
2018-10-15T12:21:33.394Z,62272
2018-10-15T12:22:33.554Z,64544
2018-10-15T12:23:33.190Z,67328
2018-10-15T12:24:33.217Z,70080
2018-10-15T12:25:33.755Z,71264
2018-10-15T12:26:33.518Z,69696
2018-10-15T12:27:33.547Z,67744
2018-10-15T12:28:33.581Z,60224
2018-10-15T12:29:33.952Z,56480
2018-10-15T12:30:33.875Z,60128
2018-10-15T12:31:33.914Z,69216
2018-10-15T12:32:33.674Z,77728
2018-10-15T12:33:33.757Z,80416
2018-10-15T12:34:33.980Z,82176
2018-10-15T12:35:33.753Z,84224
2018-10-15T12:36:33.526Z,85152
2018-10-15T12:37:33.577Z,85152
2018-10-15T12:38:34.098Z,83424
2018-10-15T12:39:34.129Z,81216
2018-10-15T12:40:34.136Z,82816
2018-10-15T12:41:34.015Z,83424
2018-10-15T12:42:33.677Z,81216
2018-10-15T12:43:34.209Z,70400
2018-10-15T12:44:33.992Z,60032
2018-10-15T12:45:34.020Z,59680
2018-10-15T12:46:34.032Z,68160
2018-10-15T12:47:34.647Z,76832
2018-10-15T12:48:34.342Z,83328
2018-10-15T12:49:34.117Z,86560
2018-10-15T12:50:33.881Z,85792
2018-10-15T12:51:34.425Z,81920
2018-10-15T12:52:34.184Z,82272
2018-10-15T12:53:35.724Z,83872
2018-10-15T12:54:34.491Z,84960
2018-10-15T12:55:34.260Z,83392
2018-10-15T12:56:34.295Z,83680
2018-10-15T12:57:34.315Z,81024
2018-10-15T12:58:34.672Z,78944
2018-10-15T12:59:34.624Z,76960
2018-10-15T13:00:34.684Z,80544
2018-10-15T13:01:34.412Z,81536
2018-10-15T13:02:34.454Z,84160
2018-10-15T13:03:34.718Z,86304
2018-10-15T13:04:34.505Z,86336
2018-10-15T13:05:34.836Z,83424
2018-10-15T13:06:34.801Z,83232
2018-10-15T13:07:34.567Z,80128
2018-10-15T13:08:34.656Z,79488
2018-10-15T13:09:34.863Z,78624
2018-10-15T13:10:34.692Z,80608
2018-10-15T13:11:34.412Z,81216
2018-10-15T13:12:34.702Z,80288
2018-10-15T13:13:34.991Z,79456
2018-10-15T13:14:34.753Z,79616
2018-10-15T13:15:35.033Z,80864
2018-10-15T13:16:34.800Z,80928
2018-10-15T13:17:34.819Z,80640
2018-10-15T13:18:35.195Z,81440
2018-10-15T13:19:34.617Z,82176
2018-10-15T13:20:35.158Z,82144
2018-10-15T13:21:35.181Z,81760
2018-10-15T13:22:34.970Z,79424
2018-10-15T13:23:35.276Z,77088
2018-10-15T13:24:35.274Z,72320
2018-10-15T13:25:35.278Z,68384
2018-10-15T13:26:34.997Z,70464
2018-10-15T13:27:35.082Z,74784
2018-10-15T13:28:35.102Z,77024
2018-10-15T13:29:35.388Z,80672
2018-10-15T13:30:35.682Z,75488
2018-10-15T13:31:35.169Z,71936
2018-10-15T13:32:35.449Z,64576
2018-10-15T13:33:35.478Z,59328
2018-10-15T13:34:35.251Z,51136
2018-10-15T13:35:35.542Z,52128
2018-10-15T13:36:35.409Z,58464
2018-10-15T13:37:35.075Z,64288
2018-10-15T13:38:35.651Z,70624
2018-10-15T13:39:35.640Z,74656
2018-10-15T13:40:35.397Z,77632
2018-10-15T13:41:35.420Z,77824
2018-10-15T13:42:35.712Z,77504
2018-10-15T13:43:35.732Z,77440
2018-10-15T13:44:35.760Z,78400